Time;durP1;ratioP1;P1;durP2;ratioP2;P2;SDS_P1;SDS_P2;PMS_P1;PMS_P2;Temp;Humidity;BMP_temperature;BMP_pressure;BME280_temperature;BME280_humidity;BME280_pressure;Samples;Min_cycle;Max_cycle;Signal;HPM_P1;HPM_P2
2022/03/24 00:00:50;;;;;;;;;;;21.40;28.40;;;;;;484379;246;1290;-38
2022/03/24 00:02:51;;;;;;;;;;;21.40;28.40;;;;;;484718;246;1049;-38
2022/03/24 00:04:52;;;;;;;;;;;21.40;28.40;;;;;;484321;246;1087;-38
2022/03/24 00:06:54;;;;;;;;;;;21.40;28.40;;;;;;484426;246;1182;-38
2022/03/24 00:08:55;;;;;;;;;;;21.40;28.40;;;;;;484529;246;1027;-38
2022/03/24 00:10:56;;;;;;;;;;;21.40;28.40;;;;;;484519;246;1217;-38
2022/03/24 00:12:58;;;;;;;;;;;21.40;28.40;;;;;;484415;246;1022;-38
2022/03/24 00:14:59;;;;;;;;;;;21.40;28.50;;;;;;484659;246;2128;-38
2022/03/24 00:17:00;;;;;;;;;;;21.40;28.50;;;;;;484364;246;1218;-38
2022/03/24 00:19:02;;;;;;;;;;;21.40;28.50;;;;;;484265;246;1016;-38
2022/03/24 00:21:04;;;;;;;;;;;21.40;28.50;;;;;;484464;246;1217;-38
2022/03/24 00:23:04;;;;;;;;;;;21.40;28.50;;;;;;484290;246;2580;-38
2022/03/24 00:25:06;;;;;;;;;;;21.40;28.50;;;;;;484335;246;1126;-38
2022/03/24 00:27:07;;;;;;;;;;;21.40;28.50;;;;;;484349;246;1193;-38
2022/03/24 00:29:09;;;;;;;;;;;21.40;28.50;;;;;;484335;246;1168;-38
2022/03/24 00:31:10;;;;;;;;;;;21.40;28.50;;;;;;484388;246;1273;-38
2022/03/24 00:33:13;;;;;;;;;;;21.40;28.50;;;;;;484693;246;1077;-38
2022/03/24 00:35:14;;;;;;;;;;;21.40;28.50;;;;;;484442;246;2203;-38
2022/03/24 00:37:15;;;;;;;;;;;21.40;28.50;;;;;;484277;246;1188;-38
2022/03/24 00:39:17;;;;;;;;;;;21.40;28.50;;;;;;484701;246;1012;-38
2022/03/24 00:41:18;;;;;;;;;;;21.40;28.50;;;;;;484466;246;1184;-38
2022/03/24 00:43:19;;;;;;;;;;;21.40;28.50;;;;;;484294;246;1057;-38
2022/03/24 00:45:21;;;;;;;;;;;21.40;28.50;;;;;;484646;246;1142;-38
2022/03/24 00:47:22;;;;;;;;;;;21.40;28.50;;;;;;484233;246;1280;-38
2022/03/24 00:49:23;;;;;;;;;;;21.40;28.50;;;;;;484309;246;1110;-38
2022/03/24 00:51:24;;;;;;;;;;;21.40;28.50;;;;;;484340;246;1163;-38
2022/03/24 00:53:26;;;;;;;;;;;21.40;28.50;;;;;;484505;246;1227;-38
2022/03/24 00:55:27;;;;;;;;;;;21.40;28.50;;;;;;484736;246;2132;-38
2022/03/24 00:57:28;;;;;;;;;;;21.40;28.50;;;;;;484196;246;1070;-38
2022/03/24 00:59:30;;;;;;;;;;;21.40;28.60;;;;;;484766;246;1112;-38
2022/03/24 01:01:31;;;;;;;;;;;21.40;28.50;;;;;;484289;246;1341;-38
2022/03/24 01:03:32;;;;;;;;;;;21.40;28.50;;;;;;484321;246;1042;-38
2022/03/24 01:05:37;;;;;;;;;;;21.40;28.50;;;;;;484699;246;995;-38
2022/03/24 01:07:35;;;;;;;;;;;21.40;28.50;;;;;;483996;246;1892;-38
2022/03/24 01:09:37;;;;;;;;;;;21.40;28.50;;;;;;484450;246;1063;-38
2022/03/24 01:11:38;;;;;;;;;;;21.40;28.50;;;;;;484504;241;1232;-38
2022/03/24 01:13:40;;;;;;;;;;;21.40;28.50;;;;;;484253;246;1066;-38
2022/03/24 01:15:42;;;;;;;;;;;21.40;28.50;;;;;;484251;246;2187;-38
2022/03/24 01:17:42;;;;;;;;;;;21.40;28.60;;;;;;484116;246;2284;-38
2022/03/24 01:19:44;;;;;;;;;;;21.40;28.50;;;;;;484290;246;1094;-38
2022/03/24 01:21:44;;;;;;;;;;;21.40;28.60;;;;;;484292;246;1372;-38
2022/03/24 01:23:46;;;;;;;;;;;21.40;28.60;;;;;;484771;246;1090;-38
2022/03/24 01:25:48;;;;;;;;;;;21.30;28.60;;;;;;484622;246;1454;-38
2022/03/24 01:27:49;;;;;;;;;;;21.40;28.60;;;;;;484271;246;2394;-38
2022/03/24 01:29:50;;;;;;;;;;;21.40;28.60;;;;;;484774;246;2266;-38
2022/03/24 01:31:51;;;;;;;;;;;21.40;28.60;;;;;;484353;246;1290;-38
2022/03/24 01:33:52;;;;;;;;;;;21.40;28.60;;;;;;484411;246;1100;-38
2022/03/24 01:35:54;;;;;;;;;;;21.30;28.60;;;;;;484689;241;2128;-38
2022/03/24 01:37:55;;;;;;;;;;;21.40;28.60;;;;;;484591;246;1096;-38
2022/03/24 01:39:56;;;;;;;;;;;21.40;28.60;;;;;;484250;246;1062;-38
2022/03/24 01:41:58;;;;;;;;;;;21.40;28.60;;;;;;484592;246;1205;-38
2022/03/24 01:43:59;;;;;;;;;;;21.40;28.60;;;;;;484642;246;2169;-38
2022/03/24 01:46:00;;;;;;;;;;;21.40;28.60;;;;;;484500;246;1256;-38
2022/03/24 01:48:02;;;;;;;;;;;21.40;28.60;;;;;;484374;246;1180;-38
2022/03/24 01:50:03;;;;;;;;;;;21.40;28.60;;;;;;484304;246;1083;-38
2022/03/24 01:52:05;;;;;;;;;;;21.40;28.60;;;;;;484646;246;1182;-38
2022/03/24 01:54:06;;;;;;;;;;;21.40;28.60;;;;;;484755;246;956;-38
2022/03/24 01:56:07;;;;;;;;;;;21.40;28.60;;;;;;484255;246;2191;-38
2022/03/24 01:58:09;;;;;;;;;;;21.40;28.50;;;;;;484306;246;1225;-38
2022/03/24 02:00:10;;;;;;;;;;;21.40;28.60;;;;;;484309;246;1254;-38
2022/03/24 02:02:11;;;;;;;;;;;21.40;28.60;;;;;;484358;246;1308;-38
2022/03/24 02:04:13;;;;;;;;;;;21.40;28.50;;;;;;484730;246;973;-38
2022/03/24 02:06:15;;;;;;;;;;;21.40;28.50;;;;;;484333;246;1262;-38
2022/03/24 02:08:16;;;;;;;;;;;21.40;28.50;;;;;;484343;246;1192;-38
2022/03/24 02:10:17;;;;;;;;;;;21.40;28.50;;;;;;484675;246;1178;-38
2022/03/24 02:12:19;;;;;;;;;;;21.40;28.50;;;;;;484655;246;1138;-38
2022/03/24 02:14:20;;;;;;;;;;;21.40;28.50;;;;;;484640;246;974;-38
2022/03/24 02:16:21;;;;;;;;;;;21.40;28.50;;;;;;484540;246;2122;-38
2022/03/24 02:18:22;;;;;;;;;;;21.40;28.50;;;;;;484677;246;1107;-38
2022/03/24 02:20:25;;;;;;;;;;;21.40;28.60;;;;;;484282;246;1034;-38
2022/03/24 02:22:25;;;;;;;;;;;21.40;28.60;;;;;;484160;246;2221;-38
2022/03/24 02:24:27;;;;;;;;;;;21.40;28.50;;;;;;484752;246;1082;-38
2022/03/24 02:26:28;;;;;;;;;;;21.40;28.50;;;;;;484545;246;1437;-38
2022/03/24 02:28:30;;;;;;;;;;;21.40;28.50;;;;;;484758;246;1039;-38
2022/03/24 02:30:31;;;;;;;;;;;21.40;28.50;;;;;;484695;246;2199;-38
2022/03/24 02:32:32;;;;;;;;;;;21.40;28.50;;;;;;484334;246;1174;-38
2022/03/24 02:34:42;;;;;;;;;;;21.40;28.50;;;;;;484745;246;2196;-38
2022/03/24 02:36:42;;;;;;;;;;;21.40;28.60;;;;;;484066;246;2025;-38
2022/03/24 02:38:43;;;;;;;;;;;21.40;28.60;;;;;;484659;246;1226;-38
2022/03/24 02:40:45;;;;;;;;;;;21.40;28.50;;;;;;484366;246;1426;-38
2022/03/24 02:42:46;;;;;;;;;;;21.40;28.60;;;;;;484225;246;2421;-38
2022/03/24 02:44:48;;;;;;;;;;;21.40;28.60;;;;;;484354;246;1090;-38
2022/03/24 02:46:49;;;;;;;;;;;21.40;28.60;;;;;;484552;241;1353;-38
2022/03/24 02:48:50;;;;;;;;;;;21.40;28.60;;;;;;484614;246;960;-38
2022/03/24 02:50:51;;;;;;;;;;;21.40;28.60;;;;;;484679;246;1121;-38
2022/03/24 02:52:53;;;;;;;;;;;21.40;28.60;;;;;;484287;246;1135;-38
2022/03/24 02:54:55;;;;;;;;;;;21.40;28.60;;;;;;484425;246;2121;-38
2022/03/24 02:56:55;;;;;;;;;;;21.40;28.60;;;;;;484663;246;2244;-38
2022/03/24 02:58:57;;;;;;;;;;;21.40;28.70;;;;;;484277;246;1066;-38
2022/03/24 03:00:58;;;;;;;;;;;21.40;28.60;;;;;;484362;246;1216;-38
2022/03/24 03:03:00;;;;;;;;;;;21.40;28.60;;;;;;484295;246;1298;-38
2022/03/24 03:05:01;;;;;;;;;;;21.40;28.60;;;;;;484524;246;1063;-38
2022/03/24 03:07:02;;;;;;;;;;;21.40;28.60;;;;;;484387;246;1331;-38
2022/03/24 03:09:04;;;;;;;;;;;21.40;28.60;;;;;;484742;246;1087;-38
2022/03/24 03:11:05;;;;;;;;;;;21.40;28.60;;;;;;484700;246;1360;-38
2022/03/24 03:13:08;;;;;;;;;;;21.40;28.60;;;;;;484694;246;1103;-38
2022/03/24 03:15:08;;;;;;;;;;;21.40;28.60;;;;;;484053;246;2190;-38
2022/03/24 03:17:09;;;;;;;;;;;21.40;28.60;;;;;;484424;246;1481;-38
2022/03/24 03:19:10;;;;;;;;;;;21.40;28.60;;;;;;484627;246;1117;-38
2022/03/24 03:21:12;;;;;;;;;;;21.40;28.60;;;;;;484491;246;1142;-38
2022/03/24 03:23:13;;;;;;;;;;;21.40;28.60;;;;;;484657;246;1219;-38
2022/03/24 03:25:14;;;;;;;;;;;21.50;28.60;;;;;;484409;246;1015;-38
2022/03/24 03:27:16;;;;;;;;;;;21.40;28.60;;;;;;484065;246;1204;-38
2022/03/24 03:29:17;;;;;;;;;;;21.40;28.60;;;;;;484483;246;1118;-38
2022/03/24 03:31:18;;;;;;;;;;;21.40;28.60;;;;;;484567;241;1439;-38
2022/03/24 03:33:20;;;;;;;;;;;21.40;28.60;;;;;;484320;246;1277;-38
2022/03/24 03:35:22;;;;;;;;;;;21.40;28.60;;;;;;484235;246;2187;-38
2022/03/24 03:37:23;;;;;;;;;;;21.40;28.60;;;;;;484206;246;2250;-38
2022/03/24 03:39:24;;;;;;;;;;;21.40;28.60;;;;;;484177;246;2311;-38
2022/03/24 03:41:26;;;;;;;;;;;21.50;28.60;;;;;;484419;246;1791;-38
2022/03/24 03:43:26;;;;;;;;;;;21.40;28.70;;;;;;484602;246;2018;-38
2022/03/24 03:45:28;;;;;;;;;;;21.40;28.70;;;;;;484549;246;1076;-38
2022/03/24 03:47:29;;;;;;;;;;;21.40;28.70;;;;;;484533;246;1217;-38
2022/03/24 03:49:30;;;;;;;;;;;21.40;28.70;;;;;;484384;246;1188;-38
2022/03/24 03:51:32;;;;;;;;;;;21.40;28.60;;;;;;484633;246;1359;-38
2022/03/24 03:53:33;;;;;;;;;;;21.40;28.70;;;;;;484173;246;1083;-38
2022/03/24 03:55:34;;;;;;;;;;;21.40;28.70;;;;;;484356;246;2113;-38
2022/03/24 03:57:36;;;;;;;;;;;21.40;28.70;;;;;;484309;246;1178;-38
2022/03/24 03:59:38;;;;;;;;;;;21.40;28.70;;;;;;484412;246;2213;-38
2022/03/24 04:01:38;;;;;;;;;;;21.40;28.70;;;;;;484620;246;2282;-38
2022/03/24 04:03:40;;;;;;;;;;;21.40;28.70;;;;;;484318;246;1224;-38
2022/03/24 04:05:41;;;;;;;;;;;21.40;28.70;;;;;;484301;246;1090;-38
2022/03/24 04:07:42;;;;;;;;;;;21.40;28.70;;;;;;484365;246;1258;-38
2022/03/24 04:09:43;;;;;;;;;;;21.40;28.70;;;;;;484443;246;1012;-38
2022/03/24 04:11:45;;;;;;;;;;;21.40;28.60;;;;;;484118;246;1129;-38
2022/03/24 04:13:46;;;;;;;;;;;21.40;28.70;;;;;;484668;246;1060;-38
2022/03/24 04:15:47;;;;;;;;;;;21.40;28.70;;;;;;484533;246;2128;-38
2022/03/24 04:17:49;;;;;;;;;;;21.30;28.70;;;;;;484443;246;1606;-38
2022/03/24 04:19:50;;;;;;;;;;;21.40;28.70;;;;;;484178;246;1438;-38
2022/03/24 04:21:51;;;;;;;;;;;21.40;28.70;;;;;;484588;246;1304;-38
2022/03/24 04:23:53;;;;;;;;;;;21.30;28.70;;;;;;484206;246;1072;-38
2022/03/24 04:25:54;;;;;;;;;;;21.40;28.70;;;;;;484460;246;1252;-38
2022/03/24 04:27:55;;;;;;;;;;;21.40;28.70;;;;;;484475;246;1218;-38
2022/03/24 04:29:57;;;;;;;;;;;21.40;28.70;;;;;;484420;246;1035;-38
2022/03/24 04:31:58;;;;;;;;;;;21.40;28.70;;;;;;484153;246;1386;-38
2022/03/24 04:33:59;;;;;;;;;;;21.40;28.70;;;;;;484370;246;1180;-38
2022/03/24 04:36:01;;;;;;;;;;;21.40;28.70;;;;;;484240;246;2117;-38
2022/03/24 04:38:04;;;;;;;;;;;21.40;28.70;;;;;;484650;246;1056;-38
2022/03/24 04:40:03;;;;;;;;;;;21.40;28.70;;;;;;484455;246;1857;-38
2022/03/24 04:42:06;;;;;;;;;;;21.40;28.70;;;;;;484599;246;1061;-38
2022/03/24 04:44:06;;;;;;;;;;;21.40;28.70;;;;;;484118;246;2407;-38
2022/03/24 04:46:08;;;;;;;;;;;21.30;28.70;;;;;;484610;246;1081;-38
2022/03/24 04:48:10;;;;;;;;;;;21.40;28.70;;;;;;484498;246;1302;-38
2022/03/24 04:50:10;;;;;;;;;;;21.40;28.70;;;;;;484188;246;2207;-38
2022/03/24 04:52:12;;;;;;;;;;;21.40;28.70;;;;;;484146;246;1136;-38
2022/03/24 04:54:14;;;;;;;;;;;21.40;28.70;;;;;;484681;246;1056;-38
2022/03/24 04:56:16;;;;;;;;;;;21.40;28.70;;;;;;484123;246;2277;-38
2022/03/24 04:58:16;;;;;;;;;;;21.40;28.70;;;;;;484124;246;2400;-38
2022/03/24 05:00:18;;;;;;;;;;;21.40;28.70;;;;;;484653;246;1057;-38
2022/03/24 05:02:18;;;;;;;;;;;21.40;28.70;;;;;;484117;246;2461;-38
2022/03/24 05:04:21;;;;;;;;;;;21.40;28.70;;;;;;484170;246;1202;-38
2022/03/24 05:06:21;;;;;;;;;;;21.40;28.70;;;;;;484445;246;1642;-38
2022/03/24 05:08:23;;;;;;;;;;;21.40;28.70;;;;;;484314;246;1130;-38
2022/03/24 05:10:24;;;;;;;;;;;21.40;28.70;;;;;;484599;246;1217;-38
2022/03/24 05:12:25;;;;;;;;;;;21.40;28.70;;;;;;484116;246;1225;-38
2022/03/24 05:14:27;;;;;;;;;;;21.40;28.70;;;;;;484586;246;1109;-38
2022/03/24 05:16:28;;;;;;;;;;;21.40;28.70;;;;;;484048;246;2228;-38
2022/03/24 05:18:29;;;;;;;;;;;21.40;28.70;;;;;;484378;246;1204;-38
2022/03/24 05:20:31;;;;;;;;;;;21.40;28.70;;;;;;484061;246;1062;-38
2022/03/24 05:22:32;;;;;;;;;;;21.40;28.70;;;;;;484066;246;1088;-38
2022/03/24 05:24:33;;;;;;;;;;;21.40;28.70;;;;;;484392;246;1113;-38
2022/03/24 05:26:35;;;;;;;;;;;21.40;28.70;;;;;;484059;246;1161;-38
2022/03/24 05:28:36;;;;;;;;;;;21.40;28.70;;;;;;484117;246;1068;-38
2022/03/24 05:30:39;;;;;;;;;;;21.40;28.70;;;;;;484036;246;1049;-38
2022/03/24 05:32:41;;;;;;;;;;;21.40;28.70;;;;;;484301;246;1823;-38
2022/03/24 05:34:42;;;;;;;;;;;21.40;28.70;;;;;;484124;246;2191;-38
2022/03/24 05:36:43;;;;;;;;;;;21.40;28.70;;;;;;484040;241;2196;-38
2022/03/24 05:38:44;;;;;;;;;;;21.40;28.60;;;;;;484090;246;1040;-38
2022/03/24 05:40:46;;;;;;;;;;;21.40;28.70;;;;;;484401;246;1100;-38
2022/03/24 05:42:47;;;;;;;;;;;21.40;28.70;;;;;;484084;246;1812;-38
2022/03/24 05:44:48;;;;;;;;;;;21.40;28.70;;;;;;483985;246;1073;-38
2022/03/24 05:46:50;;;;;;;;;;;21.40;28.70;;;;;;484082;246;1149;-38
2022/03/24 05:48:51;;;;;;;;;;;21.40;28.70;;;;;;484037;246;1180;-38
2022/03/24 05:50:52;;;;;;;;;;;21.40;28.70;;;;;;484328;246;1344;-38
2022/03/24 05:52:53;;;;;;;;;;;21.40;28.70;;;;;;483971;246;1211;-38
2022/03/24 05:54:55;;;;;;;;;;;21.40;28.80;;;;;;484029;246;1109;-38
2022/03/24 05:56:56;;;;;;;;;;;21.40;28.70;;;;;;483979;246;2192;-38
2022/03/24 05:58:58;;;;;;;;;;;21.40;28.80;;;;;;484287;246;1263;-38
2022/03/24 06:00:59;;;;;;;;;;;21.40;28.70;;;;;;484285;246;1431;-38
2022/03/24 06:03:01;;;;;;;;;;;21.40;28.70;;;;;;483977;246;1189;-38
2022/03/24 06:05:05;;;;;;;;;;;21.40;28.70;;;;;;484197;246;2450;-38
2022/03/24 06:07:03;;;;;;;;;;;21.40;28.70;;;;;;483820;246;2317;-38
2022/03/24 06:09:04;;;;;;;;;;;21.40;28.70;;;;;;484386;246;1047;-38
2022/03/24 06:11:06;;;;;;;;;;;21.40;28.70;;;;;;484125;246;1210;-38
2022/03/24 06:13:07;;;;;;;;;;;21.40;28.70;;;;;;484090;246;1078;-38
2022/03/24 06:15:08;;;;;;;;;;;21.40;28.70;;;;;;484003;246;1054;-38
2022/03/24 06:17:10;;;;;;;;;;;21.40;28.70;;;;;;483886;246;2200;-38
2022/03/24 06:19:11;;;;;;;;;;;21.40;28.70;;;;;;484008;246;1128;-38
2022/03/24 06:21:14;;;;;;;;;;;21.40;28.70;;;;;;484003;246;1331;-38
2022/03/24 06:23:14;;;;;;;;;;;21.40;28.70;;;;;;483901;246;2123;-38
2022/03/24 06:25:15;;;;;;;;;;;21.40;28.70;;;;;;483986;246;1079;-38
2022/03/24 06:27:17;;;;;;;;;;;21.40;28.70;;;;;;483882;246;1184;-38
2022/03/24 06:29:19;;;;;;;;;;;21.40;28.70;;;;;;484012;246;1183;-38
2022/03/24 06:31:20;;;;;;;;;;;21.40;28.70;;;;;;483823;246;1909;-38
2022/03/24 06:33:21;;;;;;;;;;;21.40;28.70;;;;;;483977;246;1225;-38
2022/03/24 06:35:23;;;;;;;;;;;21.40;28.70;;;;;;483882;246;1260;-38
2022/03/24 06:37:26;;;;;;;;;;;21.40;28.70;;;;;;484042;246;2120;-38
2022/03/24 06:39:26;;;;;;;;;;;21.40;28.70;;;;;;483895;246;2175;-38
2022/03/24 06:41:27;;;;;;;;;;;21.40;28.80;;;;;;483919;246;1135;-38
2022/03/24 06:43:28;;;;;;;;;;;21.40;28.80;;;;;;483974;246;1086;-38
2022/03/24 06:45:30;;;;;;;;;;;21.40;28.80;;;;;;484060;246;1161;-38
2022/03/24 06:47:31;;;;;;;;;;;21.40;28.80;;;;;;483745;246;1709;-38
2022/03/24 06:49:33;;;;;;;;;;;21.40;28.80;;;;;;483847;246;1307;-38
2022/03/24 06:51:34;;;;;;;;;;;21.40;28.70;;;;;;483907;246;1702;-38
2022/03/24 06:53:35;;;;;;;;;;;21.40;28.80;;;;;;484151;246;1217;-38
2022/03/24 06:55:36;;;;;;;;;;;21.40;28.80;;;;;;483982;246;1152;-38
2022/03/24 06:57:38;;;;;;;;;;;21.40;28.80;;;;;;483892;246;2195;-39
2022/03/24 06:59:39;;;;;;;;;;;21.40;28.80;;;;;;484144;246;1077;-39
2022/03/24 07:01:42;;;;;;;;;;;21.40;28.80;;;;;;483778;240;1487;-38
2022/03/24 07:03:42;;;;;;;;;;;21.40;28.80;;;;;;483655;246;2667;-38
2022/03/24 07:05:43;;;;;;;;;;;21.40;28.80;;;;;;483774;246;1199;-38
2022/03/24 07:07:45;;;;;;;;;;;21.40;28.80;;;;;;483609;246;1164;-38
2022/03/24 07:09:46;;;;;;;;;;;21.40;28.80;;;;;;483679;246;986;-38
2022/03/24 07:11:47;;;;;;;;;;;21.40;28.80;;;;;;483870;246;1258;-38
2022/03/24 07:13:49;;;;;;;;;;;21.40;28.80;;;;;;483676;246;1089;-38
2022/03/24 07:15:50;;;;;;;;;;;21.40;28.80;;;;;;483611;246;2316;-38
2022/03/24 07:17:51;;;;;;;;;;;21.40;28.80;;;;;;483638;246;2204;-38
2022/03/24 07:19:52;;;;;;;;;;;21.40;28.80;;;;;;483578;246;1355;-38
2022/03/24 07:21:54;;;;;;;;;;;21.40;28.70;;;;;;483606;246;1340;-38
2022/03/24 07:23:55;;;;;;;;;;;21.40;28.70;;;;;;483733;246;1108;-38
2022/03/24 07:25:56;;;;;;;;;;;21.40;28.70;;;;;;483576;246;1665;-38
2022/03/24 07:27:58;;;;;;;;;;;21.40;28.70;;;;;;483961;246;1095;-38
2022/03/24 07:29:59;;;;;;;;;;;21.40;28.70;;;;;;483562;246;1132;-38
2022/03/24 07:32:01;;;;;;;;;;;21.40;28.70;;;;;;483674;246;1339;-38
2022/03/24 07:34:02;;;;;;;;;;;21.40;28.70;;;;;;483540;246;1172;-38
2022/03/24 07:36:03;;;;;;;;;;;21.40;28.70;;;;;;483576;246;1346;-38
2022/03/24 07:38:07;;;;;;;;;;;21.40;28.70;;;;;;483594;246;2121;-38
2022/03/24 07:40:08;;;;;;;;;;;21.40;28.70;;;;;;483523;246;2310;-38
2022/03/24 07:42:07;;;;;;;;;;;21.40;28.60;;;;;;483479;246;2231;-38
2022/03/24 07:44:09;;;;;;;;;;;21.40;28.60;;;;;;483854;246;1131;-38
2022/03/24 07:46:10;;;;;;;;;;;21.50;28.60;;;;;;483606;246;1299;-38
2022/03/24 07:48:11;;;;;;;;;;;21.50;28.60;;;;;;483595;246;1106;-38
2022/03/24 07:50:13;;;;;;;;;;;21.50;28.60;;;;;;483553;246;1160;-38
2022/03/24 07:52:15;;;;;;;;;;;21.50;28.70;;;;;;483329;246;1220;-38
2022/03/24 07:54:16;;;;;;;;;;;21.40;28.60;;;;;;483469;246;1113;-38
2022/03/24 07:56:17;;;;;;;;;;;21.40;28.70;;;;;;483517;246;2195;-38
2022/03/24 07:58:21;;;;;;;;;;;21.40;28.60;;;;;;483583;246;1076;-38
2022/03/24 08:00:22;;;;;;;;;;;21.50;28.70;;;;;;483457;246;2182;-38
2022/03/24 08:02:21;;;;;;;;;;;21.50;28.70;;;;;;483315;246;1764;-38
2022/03/24 08:04:23;;;;;;;;;;;21.50;28.60;;;;;;483478;246;1070;-38
2022/03/24 08:06:24;;;;;;;;;;;21.50;28.60;;;;;;483416;246;1275;-38
2022/03/24 08:08:26;;;;;;;;;;;21.50;28.60;;;;;;483323;246;1025;-38
2022/03/24 08:10:28;;;;;;;;;;;21.50;28.60;;;;;;483249;246;1240;-38
2022/03/24 08:12:29;;;;;;;;;;;21.50;28.60;;;;;;483214;246;1101;-38
2022/03/24 08:14:30;;;;;;;;;;;21.50;28.60;;;;;;483297;246;1227;-38
2022/03/24 08:16:32;;;;;;;;;;;21.50;28.60;;;;;;483397;246;2125;-38
2022/03/24 08:18:33;;;;;;;;;;;21.50;28.60;;;;;;483307;246;1047;-38
2022/03/24 08:20:35;;;;;;;;;;;21.50;28.60;;;;;;483236;246;1212;-38
2022/03/24 08:22:36;;;;;;;;;;;21.40;28.60;;;;;;483198;246;1420;-38
2022/03/24 08:24:37;;;;;;;;;;;21.50;28.70;;;;;;483550;246;1436;-38
2022/03/24 08:26:38;;;;;;;;;;;21.40;28.70;;;;;;483517;246;1371;-38
2022/03/24 08:28:40;;;;;;;;;;;21.40;28.70;;;;;;483529;246;1075;-38
2022/03/24 08:30:41;;;;;;;;;;;21.40;28.70;;;;;;483316;246;1176;-38
2022/03/24 08:32:43;;;;;;;;;;;21.40;28.70;;;;;;483399;246;1327;-38
2022/03/24 08:34:44;;;;;;;;;;;21.40;28.70;;;;;;483449;246;1272;-38
2022/03/24 08:36:45;;;;;;;;;;;21.50;28.70;;;;;;483384;246;2255;-38
2022/03/24 08:38:47;;;;;;;;;;;21.40;28.60;;;;;;483512;246;1083;-38
2022/03/24 08:40:48;;;;;;;;;;;21.50;28.70;;;;;;483579;246;1073;-38
2022/03/24 08:42:49;;;;;;;;;;;21.50;28.60;;;;;;483452;246;1257;-38
2022/03/24 08:44:51;;;;;;;;;;;21.50;28.70;;;;;;483429;246;1066;-38
2022/03/24 08:46:52;;;;;;;;;;;21.40;28.60;;;;;;483480;246;1309;-38
2022/03/24 08:48:53;;;;;;;;;;;21.50;28.70;;;;;;483498;246;1176;-38
2022/03/24 08:50:55;;;;;;;;;;;21.40;28.70;;;;;;483434;246;1354;-38
2022/03/24 08:52:56;;;;;;;;;;;21.40;28.70;;;;;;483493;246;1199;-38
2022/03/24 08:54:58;;;;;;;;;;;21.40;28.60;;;;;;483438;246;1142;-38
2022/03/24 08:56:59;;;;;;;;;;;21.40;28.70;;;;;;483386;246;2191;-38
2022/03/24 08:59:00;;;;;;;;;;;21.50;28.70;;;;;;482742;246;1169;-38
2022/03/24 09:01:02;;;;;;;;;;;21.40;28.60;;;;;;483357;246;1193;-38
2022/03/24 09:03:03;;;;;;;;;;;21.50;28.60;;;;;;483378;246;1275;-38
2022/03/24 09:05:05;;;;;;;;;;;21.40;28.70;;;;;;483264;246;1091;-38
2022/03/24 09:07:06;;;;;;;;;;;21.50;28.70;;;;;;483258;246;1203;-38
2022/03/24 09:09:07;;;;;;;;;;;21.50;28.70;;;;;;483307;246;1175;-38
2022/03/24 09:11:09;;;;;;;;;;;21.50;28.60;;;;;;483180;246;1447;-38
2022/03/24 09:13:10;;;;;;;;;;;21.50;28.60;;;;;;483158;246;1366;-38
2022/03/24 09:15:12;;;;;;;;;;;21.50;28.70;;;;;;483308;246;1061;-38
2022/03/24 09:17:13;;;;;;;;;;;21.50;28.70;;;;;;483153;246;2212;-38
2022/03/24 09:19:14;;;;;;;;;;;21.40;28.70;;;;;;483264;246;1243;-38
2022/03/24 09:21:16;;;;;;;;;;;21.40;28.70;;;;;;483352;246;1093;-38
2022/03/24 09:23:17;;;;;;;;;;;21.50;28.70;;;;;;483734;246;1122;-38
2022/03/24 09:25:19;;;;;;;;;;;21.40;28.70;;;;;;483468;246;1105;-38
2022/03/24 09:27:20;;;;;;;;;;;21.50;28.70;;;;;;483319;246;1174;-38
2022/03/24 09:29:22;;;;;;;;;;;21.40;28.70;;;;;;483374;246;1185;-38
2022/03/24 09:31:23;;;;;;;;;;;21.40;28.70;;;;;;483597;246;1209;-38
2022/03/24 09:33:24;;;;;;;;;;;21.40;28.70;;;;;;483531;246;1085;-38
2022/03/24 09:35:26;;;;;;;;;;;21.50;28.70;;;;;;483434;246;1077;-38
2022/03/24 09:37:27;;;;;;;;;;;21.50;28.70;;;;;;483855;246;2164;-38
2022/03/24 09:39:28;;;;;;;;;;;21.50;28.70;;;;;;483305;246;1092;-38
2022/03/24 09:41:30;;;;;;;;;;;21.50;28.70;;;;;;483223;246;1386;-38
2022/03/24 09:43:31;;;;;;;;;;;21.50;28.70;;;;;;483306;246;1306;-38
2022/03/24 09:45:32;;;;;;;;;;;21.50;28.70;;;;;;483302;246;1260;-38
2022/03/24 09:47:34;;;;;;;;;;;21.50;28.70;;;;;;483269;246;1116;-39
2022/03/24 09:49:35;;;;;;;;;;;21.50;28.60;;;;;;483469;246;1122;-38
2022/03/24 09:51:39;;;;;;;;;;;21.50;28.60;;;;;;483352;246;1236;-38
2022/03/24 09:53:39;;;;;;;;;;;21.50;28.60;;;;;;483279;246;1959;-38
2022/03/24 09:55:40;;;;;;;;;;;21.50;28.70;;;;;;483378;246;1807;-38
2022/03/24 09:57:40;;;;;;;;;;;21.50;28.70;;;;;;483533;246;2185;-38
2022/03/24 09:59:41;;;;;;;;;;;21.50;28.60;;;;;;483562;246;1165;-38
2022/03/24 10:01:43;;;;;;;;;;;21.50;28.70;;;;;;483337;246;1608;-38
2022/03/24 10:03:44;;;;;;;;;;;21.50;28.60;;;;;;483368;246;1097;-38
2022/03/24 10:05:45;;;;;;;;;;;21.50;28.60;;;;;;483280;246;1052;-38
2022/03/24 10:07:47;;;;;;;;;;;21.50;28.60;;;;;;483583;246;1192;-38
2022/03/24 10:09:48;;;;;;;;;;;21.50;28.60;;;;;;483411;246;1081;-38
2022/03/24 10:11:49;;;;;;;;;;;21.50;28.70;;;;;;483332;246;1263;-38
2022/03/24 10:13:53;;;;;;;;;;;21.50;28.60;;;;;;483395;246;1046;-38
2022/03/24 10:15:53;;;;;;;;;;;21.50;28.60;;;;;;483187;246;2039;-38
2022/03/24 10:17:54;;;;;;;;;;;21.50;28.60;;;;;;483328;246;2408;-38
2022/03/24 10:19:56;;;;;;;;;;;21.60;28.60;;;;;;483340;246;1180;-38
2022/03/24 10:21:57;;;;;;;;;;;21.50;28.60;;;;;;483414;246;1420;-38
2022/03/24 10:24:00;;;;;;;;;;;21.50;28.60;;;;;;483491;246;1087;-38
2022/03/24 10:26:01;;;;;;;;;;;21.50;28.60;;;;;;483473;246;2098;-38
2022/03/24 10:28:02;;;;;;;;;;;21.50;28.60;;;;;;483596;246;1173;-38
2022/03/24 10:30:03;;;;;;;;;;;21.60;28.60;;;;;;483310;246;1276;-38
2022/03/24 10:32:05;;;;;;;;;;;21.50;28.60;;;;;;483337;241;1290;-38
2022/03/24 10:34:07;;;;;;;;;;;21.50;28.60;;;;;;483455;246;1146;-38
2022/03/24 10:36:08;;;;;;;;;;;21.50;28.60;;;;;;483387;246;1175;-38
2022/03/24 10:38:10;;;;;;;;;;;21.50;28.60;;;;;;483345;246;2195;-38
2022/03/24 10:40:13;;;;;;;;;;;21.50;28.60;;;;;;483281;246;1325;-38
2022/03/24 10:42:12;;;;;;;;;;;21.50;28.50;;;;;;483101;246;2132;-38
2022/03/24 10:44:14;;;;;;;;;;;21.50;28.50;;;;;;483550;246;1175;-38
2022/03/24 10:46:15;;;;;;;;;;;21.60;28.50;;;;;;483652;246;1094;-38
2022/03/24 10:48:16;;;;;;;;;;;21.60;28.50;;;;;;483511;246;1102;-38
2022/03/24 10:50:18;;;;;;;;;;;21.50;28.50;;;;;;483545;246;1104;-38
2022/03/24 10:52:19;;;;;;;;;;;21.50;28.50;;;;;;483443;246;1348;-38
2022/03/24 10:54:20;;;;;;;;;;;21.50;28.60;;;;;;483272;246;1220;-38
2022/03/24 10:56:22;;;;;;;;;;;21.50;28.60;;;;;;483332;246;1226;-38
2022/03/24 10:58:23;;;;;;;;;;;21.50;28.50;;;;;;483416;246;2128;-38
2022/03/24 11:00:24;;;;;;;;;;;21.60;28.50;;;;;;483468;246;1272;-39
2022/03/24 11:02:26;;;;;;;;;;;21.50;28.50;;;;;;483439;246;1268;-38
2022/03/24 11:04:27;;;;;;;;;;;21.50;28.50;;;;;;483278;246;1309;-38
2022/03/24 11:06:29;;;;;;;;;;;21.50;28.50;;;;;;483258;246;1213;-38
2022/03/24 11:08:30;;;;;;;;;;;21.50;28.50;;;;;;483959;246;2112;-38
2022/03/24 11:10:33;;;;;;;;;;;21.50;28.50;;;;;;483565;246;1036;-38
2022/03/24 11:12:36;;;;;;;;;;;21.50;28.50;;;;;;483322;246;2073;-38
2022/03/24 11:14:34;;;;;;;;;;;21.50;28.50;;;;;;483298;246;2140;-38
2022/03/24 11:16:35;;;;;;;;;;;21.50;28.50;;;;;;483328;246;1372;-38
2022/03/24 11:18:36;;;;;;;;;;;21.50;28.50;;;;;;483464;246;2188;-38
2022/03/24 11:20:38;;;;;;;;;;;21.50;28.60;;;;;;483388;246;1105;-38
2022/03/24 11:22:39;;;;;;;;;;;21.50;28.60;;;;;;483413;246;1151;-38
2022/03/24 11:24:40;;;;;;;;;;;21.50;28.60;;;;;;483441;246;1226;-38
2022/03/24 11:26:42;;;;;;;;;;;21.50;28.50;;;;;;483283;246;1185;-38
2022/03/24 11:28:46;;;;;;;;;;;21.50;28.50;;;;;;483359;246;1114;-38
2022/03/24 11:30:44;;;;;;;;;;;21.50;28.50;;;;;;483252;246;2059;-38
2022/03/24 11:32:46;;;;;;;;;;;21.60;28.50;;;;;;483366;246;1207;-38
2022/03/24 11:34:47;;;;;;;;;;;21.60;28.50;;;;;;483501;246;1252;-38
2022/03/24 11:36:48;;;;;;;;;;;21.60;28.50;;;;;;483466;246;1332;-38
2022/03/24 11:38:50;;;;;;;;;;;21.50;28.50;;;;;;483445;246;2188;-38
2022/03/24 11:40:51;;;;;;;;;;;21.50;28.50;;;;;;483420;246;1102;-38
2022/03/24 11:42:52;;;;;;;;;;;21.60;28.50;;;;;;483489;246;1213;-38
2022/03/24 11:44:53;;;;;;;;;;;21.50;28.50;;;;;;483451;246;1138;-38
2022/03/24 11:46:55;;;;;;;;;;;21.50;28.50;;;;;;483433;246;1327;-38
2022/03/24 11:48:56;;;;;;;;;;;21.50;28.50;;;;;;483446;246;1152;-38
2022/03/24 11:50:57;;;;;;;;;;;21.50;28.50;;;;;;483287;246;1342;-38
2022/03/24 11:52:59;;;;;;;;;;;21.50;28.50;;;;;;483483;246;1217;-38
2022/03/24 11:55:00;;;;;;;;;;;21.50;28.40;;;;;;483427;246;1234;-38
2022/03/24 11:57:01;;;;;;;;;;;21.50;28.50;;;;;;483386;246;1266;-38